Time;durP1;ratioP1;P1;durP2;ratioP2;P2;SDS_P1;SDS_P2;PMS_P1;PMS_P2;Temp;Humidity;BMP_temperature;BMP_pressure;BME280_temperature;BME280_humidity;BME280_pressure;Samples;Min_cycle;Max_cycle;Signal;HPM_P1;HPM_P2
2023/01/16 00:00:27;;;;;;;3.90;1.53;;;5.40;99.90;;;;;;5092477;28;20629;-70
2023/01/16 00:02:53;;;;;;;7.20;1.67;;;5.40;99.90;;;;;;5092796;28;20293;-70
2023/01/16 00:05:19;;;;;;;5.93;1.23;;;5.50;99.90;;;;;;5092766;28;20203;-70
2023/01/16 00:07:44;;;;;;;4.53;1.30;;;5.50;99.90;;;;;;5092694;28;20652;-70
2023/01/16 00:10:10;;;;;;;2.67;1.00;;;5.60;99.90;;;;;;5092855;28;20164;-70
2023/01/16 00:12:36;;;;;;;3.37;1.33;;;5.60;99.90;;;;;;5092775;28;20195;-70
2023/01/16 00:15:02;;;;;;;3.83;1.50;;;5.60;99.90;;;;;;5092578;28;20548;-70
2023/01/16 00:17:27;;;;;;;4.73;1.10;;;5.60;99.90;;;;;;5092826;28;20259;-72
2023/01/16 00:19:53;;;;;;;2.87;1.63;;;5.60;99.90;;;;;;5092770;28;20231;-70
2023/01/16 00:22:18;;;;;;;4.87;1.63;;;5.60;99.90;;;;;;5092864;28;20175;-71
2023/01/16 00:24:44;;;;;;;4.30;1.60;;;5.50;99.90;;;;;;5092628;28;20528;-71
2023/01/16 00:27:09;;;;;;;3.27;1.50;;;5.50;99.90;;;;;;5092628;28;20168;-71
2023/01/16 00:29:35;;;;;;;2.27;1.30;;;5.50;99.90;;;;;;5091399;28;20176;-70
2023/01/16 00:32:01;;;;;;;2.27;1.27;;;5.50;99.90;;;;;;5092037;28;20250;-69
2023/01/16 00:34:26;;;;;;;2.20;1.30;;;5.50;99.90;;;;;;5092692;28;20172;-72
2023/01/16 00:36:52;;;;;;;5.30;1.73;;;5.50;99.90;;;;;;5092372;28;20539;-69
2023/01/16 00:39:17;;;;;;;4.07;1.70;;;5.40;99.90;;;;;;5092272;28;20204;-70
2023/01/16 00:41:43;;;;;;;2.90;1.20;;;5.40;99.90;;;;;;5092535;28;20187;-71
2023/01/16 00:44:09;;;;;;;4.77;1.60;;;5.40;99.90;;;;;;5092391;28;20172;-70
2023/01/16 00:46:34;;;;;;;5.13;1.70;;;5.40;99.90;;;;;;5053392;28;1110635;-70
2023/01/16 00:49:00;;;;;;;4.10;1.20;;;5.40;99.90;;;;;;5093243;28;20168;-70
2023/01/16 00:51:25;;;;;;;2.13;1.20;;;5.30;99.90;;;;;;5093293;28;20206;-69
2023/01/16 00:53:51;;;;;;;4.07;1.50;;;5.30;99.90;;;;;;5093160;28;20530;-69
2023/01/16 00:56:17;;;;;;;1.87;1.37;;;5.30;99.90;;;;;;5093172;28;20241;-69
2023/01/16 00:58:42;;;;;;;3.40;1.03;;;5.30;99.90;;;;;;5091716;28;20176;-70
2023/01/16 01:01:08;;;;;;;3.70;1.47;;;5.30;99.90;;;;;;5092734;28;20211;-69
2023/01/16 01:03:33;;;;;;;1.97;1.30;;;5.30;99.90;;;;;;5093103;28;20703;-70
2023/01/16 01:05:59;;;;;;;3.30;1.40;;;5.40;99.90;;;;;;5092879;28;20203;-70
2023/01/16 01:08:24;;;;;;;4.23;1.60;;;5.40;99.90;;;;;;5093084;28;20172;-70
2023/01/16 01:10:50;;;;;;;5.50;1.40;;;5.30;99.90;;;;;;5092988;28;20168;-69
2023/01/16 01:13:16;;;;;;;2.67;1.10;;;5.30;99.90;;;;;;5092970;28;20196;-69
2023/01/16 01:15:41;;;;;;;3.40;1.63;;;5.40;99.90;;;;;;5092477;28;20184;-69
2023/01/16 01:18:07;;;;;;;2.77;1.33;;;5.40;99.90;;;;;;5093028;28;20712;-69
2023/01/16 01:20:33;;;;;;;3.40;1.57;;;5.40;99.90;;;;;;5092938;28;20808;-69
2023/01/16 01:23:01;;;;;;;5.93;2.03;;;5.50;99.90;;;;;;5092955;28;20176;-70
2023/01/16 01:25:27;;;;;;;2.77;1.80;;;5.40;99.90;;;;;;5092761;28;20229;-69
2023/01/16 01:27:52;;;;;;;9.17;2.07;;;5.40;99.90;;;;;;5092902;28;20164;-70
2023/01/16 01:30:19;;;;;;;4.77;1.60;;;5.50;99.90;;;;;;5092384;28;20179;-69
2023/01/16 01:32:44;;;;;;;8.47;2.27;;;5.50;99.90;;;;;;5092936;28;20160;-70
2023/01/16 01:35:10;;;;;;;3.70;2.00;;;5.60;99.90;;;;;;5092639;28;20650;-70
2023/01/16 01:37:35;;;;;;;8.60;2.30;;;5.60;99.90;;;;;;5092875;28;20203;-69
2023/01/16 01:40:04;;;;;;;5.97;2.17;;;5.70;99.90;;;;;;5093852;28;20290;-70
2023/01/16 01:42:51;;;;;;;5.47;2.20;;;5.70;99.90;;;;;;5096485;28;20171;-70
2023/01/16 01:45:28;;;;;;;4.07;2.60;;;5.70;99.90;;;;;;5095779;28;20306;-70
2023/01/16 01:48:11;;;;;;;6.63;2.00;;;5.70;99.90;;;;;;5096225;28;20526;-69
2023/01/16 01:50:57;;;;;;;3.83;1.90;;;5.80;99.90;;;;;;5096314;28;20278;-70
2023/01/16 01:53:37;;;;;;;8.13;2.20;;;5.80;99.90;;;;;;5096111;28;20164;-70
2023/01/16 01:56:15;;;;;;;6.57;2.47;;;5.90;99.90;;;;;;5096184;28;20262;-70
2023/01/16 01:58:42;;;;;;;7.70;2.73;;;5.90;99.90;;;;;;5095573;28;20176;-68
2023/01/16 02:01:08;;;;;;;7.47;2.40;;;6.00;99.90;;;;;;5096113;28;20180;-70
2023/01/16 02:03:41;;;;;;;9.17;2.73;;;6.00;99.90;;;;;;5095768;28;20678;-70
2023/01/16 02:06:14;;;;;;;6.80;2.50;;;6.10;99.90;;;;;;5095934;28;20198;-69
2023/01/16 02:08:44;;;;;;;7.83;2.00;;;6.10;99.90;;;;;;5095911;28;20535;-69
2023/01/16 02:11:25;;;;;;;6.80;2.27;;;6.10;99.90;;;;;;5095878;28;20188;-70
2023/01/16 02:14:04;;;;;;;5.77;1.83;;;6.10;99.90;;;;;;5095347;28;20167;-68
2023/01/16 02:19:40;;;;;;;6.17;2.00;;;6.20;99.90;;;;;;5095721;28;20211;-69
2023/01/16 02:22:18;;;;;;;5.10;2.20;;;6.20;99.90;;;;;;5095354;28;20171;-70
2023/01/16 02:24:47;;;;;;;5.73;1.87;;;6.20;99.90;;;;;;5095662;28;20179;-69
2023/01/16 02:27:42;;;;;;;3.97;1.90;;;6.10;99.90;;;;;;5095156;28;20233;-70
2023/01/16 02:30:45;;;;;;;6.13;2.00;;;6.20;99.90;;;;;;5095347;28;20168;-70
2023/01/16 02:33:37;;;;;;;6.80;1.60;;;6.20;99.90;;;;;;5095450;28;20175;-70
2023/01/16 02:36:21;;;;;;;9.27;2.03;;;6.20;99.90;;;;;;5095123;28;20631;-69
2023/01/16 02:39:07;;;;;;;6.10;1.60;;;6.30;99.90;;;;;;5095065;28;20583;-69
2023/01/16 02:41:41;;;;;;;6.27;1.67;;;6.30;99.90;;;;;;5095003;28;20292;-70
2023/01/16 02:44:23;;;;;;;5.67;1.80;;;6.30;99.90;;;;;;5095277;28;20209;-70
2023/01/16 02:47:21;;;;;;;5.40;1.87;;;6.40;99.90;;;;;;5095119;28;20275;-71
2023/01/16 02:50:09;;;;;;;6.47;2.10;;;6.40;99.90;;;;;;5013041;28;20205;-70
2023/01/16 02:52:46;;;;;;;4.83;1.80;;;6.40;99.90;;;;;;5011334;28;20179;-70
2023/01/16 02:55:23;;;;;;;6.87;2.17;;;6.40;99.90;;;;;;5012870;28;20237;-70
2023/01/16 02:57:54;;;;;;;5.03;1.57;;;6.40;99.90;;;;;;5012806;28;20174;-68
2023/01/16 03:00:21;;;;;;;8.23;1.50;;;6.50;99.90;;;;;;5012757;28;20269;-70
2023/01/16 03:02:47;;;;;;;8.07;1.50;;;6.50;99.90;;;;;;5013029;28;20263;-70
2023/01/16 03:05:12;;;;;;;6.67;1.83;;;6.50;99.90;;;;;;5012603;28;20305;-70
2023/01/16 03:07:44;;;;;;;6.63;2.10;;;6.60;99.90;;;;;;5012600;28;20186;-70
2023/01/16 03:10:40;;;;;;;4.60;1.77;;;6.60;99.90;;;;;;5012214;28;20183;-70
2023/01/16 03:13:31;;;;;;;5.10;1.50;;;6.60;99.90;;;;;;5012751;28;20183;-68
2023/01/16 03:16:16;;;;;;;3.70;1.57;;;6.60;99.90;;;;;;5012478;28;20178;-69
2023/01/16 03:19:17;;;;;;;7.13;1.40;;;6.70;99.90;;;;;;5012666;28;20629;-70
2023/01/16 03:22:01;;;;;;;3.20;1.33;;;6.60;99.90;;;;;;4935121;29;20189;-69
2023/01/16 03:24:27;;;;;;;4.53;1.40;;;6.60;99.90;;;;;;4934525;29;20229;-69
2023/01/16 03:27:06;;;;;;;8.10;1.53;;;6.60;99.90;;;;;;4981770;28;20195;-70
2023/01/16 03:29:49;;;;;;;9.67;2.03;;;6.60;99.90;;;;;;5012282;28;20685;-70
2023/01/16 03:32:26;;;;;;;7.77;1.93;;;6.60;99.90;;;;;;5012480;28;20183;-69
2023/01/16 03:34:56;;;;;;;4.00;1.60;;;6.60;99.90;;;;;;5012331;28;20232;-68
2023/01/16 03:37:30;;;;;;;5.40;1.60;;;6.60;99.90;;;;;;5011969;28;20281;-69
2023/01/16 03:40:03;;;;;;;7.43;1.80;;;6.60;99.90;;;;;;5011726;28;20288;-70
2023/01/16 03:42:36;;;;;;;6.97;1.37;;;6.70;99.90;;;;;;5012114;28;20221;-68
2023/01/16 03:45:08;;;;;;;8.50;1.80;;;6.70;99.90;;;;;;5011596;28;20226;-69
2023/01/16 03:47:40;;;;;;;7.30;1.53;;;6.70;99.90;;;;;;5011919;28;20721;-69
2023/01/16 03:50:09;;;;;;;6.73;1.80;;;6.70;99.90;;;;;;5011798;28;20178;-69
2023/01/16 03:52:43;;;;;;;7.47;2.00;;;6.70;99.90;;;;;;5011875;28;20243;-69
2023/01/16 03:55:39;;;;;;;3.13;1.40;;;6.70;99.90;;;;;;5035118;28;20635;-69
2023/01/16 03:58:09;;;;;;;4.53;1.50;;;6.70;99.90;;;;;;5093797;28;20164;-69
2023/01/16 04:00:55;;;;;;;7.27;1.70;;;6.70;99.90;;;;;;5093634;28;20210;-69
2023/01/16 04:03:27;;;;;;;5.53;1.20;;;6.70;99.90;;;;;;5093806;28;20229;-68
2023/01/16 04:06:10;;;;;;;4.50;1.50;;;6.70;99.90;;;;;;5093495;28;20231;-69
2023/01/16 04:08:40;;;;;;;5.63;1.40;;;6.70;99.90;;;;;;5093288;28;20187;-70
2023/01/16 04:11:07;;;;;;;9.60;1.60;;;6.60;99.90;;;;;;5093678;28;20176;-70
2023/01/16 04:13:36;;;;;;;5.93;1.40;;;6.60;99.90;;;;;;5093606;28;20180;-70
2023/01/16 04:16:06;;;;;;;4.83;1.77;;;6.60;99.90;;;;;;5093543;28;20195;-70
2023/01/16 04:18:34;;;;;;;5.57;1.20;;;6.60;99.90;;;;;;5093286;28;20320;-70
2023/01/16 04:21:02;;;;;;;5.60;1.37;;;6.50;99.90;;;;;;5093082;28;20207;-70
2023/01/16 04:23:28;;;;;;;8.93;1.93;;;6.50;99.90;;;;;;5092982;28;20172;-71
2023/01/16 04:25:53;;;;;;;3.47;1.40;;;6.50;99.90;;;;;;5093229;28;20574;-71
2023/01/16 04:28:19;;;;;;;5.80;1.50;;;6.40;99.90;;;;;;5093249;28;20164;-70
2023/01/16 04:30:44;;;;;;;6.70;1.80;;;6.40;99.90;;;;;;5093165;28;20171;-71
2023/01/16 04:33:10;;;;;;;3.77;1.23;;;6.40;99.90;;;;;;5093256;28;20183;-70
2023/01/16 04:35:36;;;;;;;5.27;1.90;;;6.40;99.90;;;;;;5092775;28;20251;-70
2023/01/16 04:38:01;;;;;;;6.60;1.40;;;6.40;99.90;;;;;;5092796;28;20646;-71
2023/01/16 04:40:27;;;;;;;5.13;1.87;;;6.40;99.90;;;;;;5092920;28;20206;-71
2023/01/16 04:42:54;;;;;;;6.80;1.47;;;6.50;99.90;;;;;;5092970;28;20627;-70
2023/01/16 04:45:20;;;;;;;5.00;1.40;;;6.50;99.90;;;;;;5092834;28;20258;-71
2023/01/16 04:47:51;;;;;;;4.10;1.43;;;6.50;99.90;;;;;;5092858;28;20228;-69
2023/01/16 04:50:17;;;;;;;8.00;1.80;;;6.40;99.90;;;;;;5093139;28;20179;-71
2023/01/16 04:52:43;;;;;;;3.27;1.23;;;6.40;99.90;;;;;;5092174;28;20163;-71
2023/01/16 04:55:10;;;;;;;7.90;1.60;;;6.40;99.90;;;;;;5092357;28;20194;-71
2023/01/16 04:57:36;;;;;;;7.33;1.63;;;6.40;99.90;;;;;;5092931;28;20172;-71
2023/01/16 05:00:03;;;;;;;8.13;1.40;;;6.30;99.90;;;;;;5093151;28;20512;-70
2023/01/16 05:02:29;;;;;;;5.00;1.40;;;6.30;99.90;;;;;;5092528;28;20281;-70
2023/01/16 05:04:54;;;;;;;3.53;1.20;;;6.30;99.90;;;;;;5092162;28;20192;-70
2023/01/16 05:07:20;;;;;;;5.93;1.57;;;6.20;99.90;;;;;;5092287;28;20183;-71
2023/01/16 05:09:46;;;;;;;5.13;1.30;;;6.20;99.90;;;;;;5092495;28;20460;-71
2023/01/16 05:12:11;;;;;;;4.00;1.73;;;6.20;99.90;;;;;;5092772;28;20180;-71
2023/01/16 05:14:37;;;;;;;4.50;1.40;;;6.20;99.90;;;;;;5093023;28;20176;-70
2023/01/16 05:17:02;;;;;;;4.47;1.20;;;6.10;99.90;;;;;;5096328;28;20202;-71
2023/01/16 05:19:28;;;;;;;5.03;1.20;;;6.10;99.90;;;;;;5096632;28;20236;-71
2023/01/16 05:21:53;;;;;;;5.00;1.20;;;6.00;99.90;;;;;;5096128;28;20535;-71
2023/01/16 05:24:19;;;;;;;5.23;1.20;;;6.00;99.90;;;;;;5096004;28;20187;-71
2023/01/16 05:26:45;;;;;;;6.97;1.73;;;6.00;99.90;;;;;;5096360;28;20694;-71
2023/01/16 05:29:10;;;;;;;5.83;1.20;;;6.00;99.90;;;;;;5096023;28;20184;-71
2023/01/16 05:31:36;;;;;;;2.77;1.40;;;5.90;99.90;;;;;;5096120;28;20160;-71
2023/01/16 05:34:02;;;;;;;4.13;1.20;;;5.90;99.90;;;;;;5096039;28;20647;-70
2023/01/16 05:36:27;;;;;;;3.47;1.03;;;5.90;99.90;;;;;;5095959;28;20662;-71
2023/01/16 05:38:54;;;;;;;2.03;1.43;;;5.90;99.90;;;;;;5095736;28;20183;-72
2023/01/16 05:41:20;;;;;;;4.33;1.20;;;5.80;99.90;;;;;;5095871;28;20179;-71
2023/01/16 05:43:45;;;;;;;2.97;1.20;;;5.80;99.90;;;;;;5096045;28;20172;-70
2023/01/16 05:46:11;;;;;;;1.30;1.10;;;5.70;99.90;;;;;;5095549;28;20231;-70
2023/01/16 05:48:38;;;;;;;3.43;1.30;;;5.70;99.90;;;;;;5095500;28;20168;-70
2023/01/16 05:51:04;;;;;;;1.13;0.67;;;5.70;99.90;;;;;;5095492;28;20223;-71
2023/01/16 05:53:30;;;;;;;2.20;0.67;;;5.70;99.90;;;;;;5095028;28;20195;-71
2023/01/16 05:55:56;;;;;;;3.00;0.80;;;5.70;99.90;;;;;;5095239;28;20175;-69
2023/01/16 05:58:22;;;;;;;2.63;0.97;;;5.60;99.90;;;;;;5095339;28;20175;-70
2023/01/16 06:00:48;;;;;;;5.60;0.87;;;5.60;99.90;;;;;;5095275;28;20553;-70
2023/01/16 06:03:15;;;;;;;1.40;0.70;;;5.60;99.90;;;;;;5095093;28;20661;-71
2023/01/16 06:05:41;;;;;;;1.23;1.00;;;5.40;99.90;;;;;;5094912;28;20281;-69
2023/01/16 06:08:07;;;;;;;0.50;0.50;;;5.50;99.90;;;;;;5095480;28;20201;-71
2023/01/16 06:10:32;;;;;;;0.60;0.60;;;5.40;99.90;;;;;;5095210;28;20183;-70
2023/01/16 06:13:00;;;;;;;1.83;0.60;;;5.40;99.90;;;;;;5094675;28;20705;-72
2023/01/16 06:15:25;;;;;;;1.23;0.63;;;5.40;99.90;;;;;;5094721;28;20183;-70
2023/01/16 06:17:53;;;;;;;1.80;0.83;;;5.40;99.90;;;;;;5094165;28;20167;-71
2023/01/16 06:20:19;;;;;;;1.13;0.67;;;5.40;99.90;;;;;;5094277;28;20248;-71
2023/01/16 06:22:45;;;;;;;1.50;0.73;;;5.40;99.90;;;;;;5094909;28;20168;-70
2023/01/16 06:25:11;;;;;;;1.80;0.80;;;5.40;99.90;;;;;;5094061;28;20179;-71
2023/01/16 06:27:36;;;;;;;0.60;0.43;;;5.40;99.90;;;;;;5093810;28;20496;-71
2023/01/16 06:30:03;;;;;;;2.13;1.07;;;5.30;99.90;;;;;;5094506;28;20200;-71
2023/01/16 06:32:29;;;;;;;1.20;0.50;;;5.30;99.90;;;;;;5094081;28;20183;-70
2023/01/16 06:34:54;;;;;;;1.50;0.90;;;5.30;99.90;;;;;;5093493;28;20176;-70
2023/01/16 06:37:20;;;;;;;1.90;0.70;;;5.30;99.90;;;;;;5094212;28;20251;-72
2023/01/16 06:39:45;;;;;;;1.37;0.87;;;5.30;99.90;;;;;;5094254;28;20228;-71
2023/01/16 06:42:11;;;;;;;1.27;0.40;;;5.40;99.90;;;;;;5092770;28;20175;-72
2023/01/16 06:44:37;;;;;;;1.73;0.53;;;5.30;99.90;;;;;;5093839;28;20243;-72
2023/01/16 06:47:02;;;;;;;0.60;0.53;;;5.30;99.90;;;;;;5093385;28;20779;-72
2023/01/16 06:49:28;;;;;;;3.17;0.80;;;5.30;99.90;;;;;;5093728;28;20179;-72
2023/01/16 06:51:54;;;;;;;0.57;0.57;;;5.30;99.90;;;;;;5093431;28;20176;-71
2023/01/16 06:54:19;;;;;;;2.13;0.67;;;5.30;99.90;;;;;;5094106;28;20204;-72
2023/01/16 06:56:45;;;;;;;1.00;0.50;;;5.30;99.90;;;;;;5093851;28;20183;-71
2023/01/16 06:59:10;;;;;;;0.50;0.50;;;5.30;99.90;;;;;;5093069;28;20204;-72
2023/01/16 07:01:36;;;;;;;0.63;0.60;;;5.30;99.90;;;;;;5093000;28;20593;-71
2023/01/16 07:04:02;;;;;;;1.17;0.60;;;5.30;99.90;;;;;;5092677;28;20213;-72
2023/01/16 07:06:28;;;;;;;2.73;0.60;;;5.30;99.90;;;;;;5093633;28;20203;-72
2023/01/16 07:08:53;;;;;;;0.43;0.40;;;5.20;99.90;;;;;;5093012;28;20572;-72
2023/01/16 07:11:19;;;;;;;0.70;0.40;;;5.20;99.90;;;;;;5092295;28;20635;-72
2023/01/16 07:13:45;;;;;;;0.67;0.60;;;5.20;99.90;;;;;;5091873;28;20291;-74
2023/01/16 07:24:31;;;;;;;0.60;0.60;;;5.20;99.90;;;;;;5093046;28;20701;-73
2023/01/16 07:26:59;;;;;;;0.73;0.50;;;5.30;99.90;;;;;;5093032;28;20183;-72
2023/01/16 07:29:27;;;;;;;1.23;0.53;;;5.30;99.90;;;;;;5093087;28;20168;-72
2023/01/16 07:31:54;;;;;;;7.50;0.80;;;5.30;99.90;;;;;;5090975;28;20176;-71
2023/01/16 07:34:19;;;;;;;0.60;0.60;;;5.30;99.90;;;;;;5091206;28;20210;-71
2023/01/16 07:36:45;;;;;;;0.93;0.50;;;5.30;99.90;;;;;;5092208;28;20195;-71
2023/01/16 07:39:10;;;;;;;0.43;0.33;;;5.30;99.90;;;;;;5092206;28;20195;-72
2023/01/16 07:41:36;;;;;;;1.53;0.60;;;5.40;99.90;;;;;;5092514;28;20472;-71
2023/01/16 07:44:02;;;;;;;1.17;0.50;;;5.40;99.90;;;;;;5092268;28;20167;-70
2023/01/16 07:46:27;;;;;;;0.87;0.50;;;5.40;99.90;;;;;;5091970;28;20682;-71
2023/01/16 07:48:55;;;;;;;0.67;0.40;;;5.40;99.90;;;;;;5093401;28;20650;-71
2023/01/16 07:51:20;;;;;;;0.30;0.30;;;5.40;99.90;;;;;;5090358;28;20326;-70
2023/01/16 07:53:46;;;;;;;0.50;0.50;;;5.40;99.90;;;;;;5090377;28;20268;-72
2023/01/16 07:56:11;;;;;;;1.20;0.60;;;5.40;99.90;;;;;;5090609;28;20164;-71
2023/01/16 07:58:39;;;;;;;0.70;0.30;;;5.40;99.90;;;;;;5091115;28;20626;-70
2023/01/16 08:01:05;;;;;;;3.07;0.60;;;5.40;99.90;;;;;;5089983;28;20636;-70
2023/01/16 08:03:31;;;;;;;0.60;0.60;;;5.40;99.90;;;;;;5091154;28;20285;-70
2023/01/16 08:05:57;;;;;;;1.70;0.70;;;5.40;99.90;;;;;;5090993;28;20589;-72
2023/01/16 08:08:25;;;;;;;1.17;0.63;;;5.40;99.90;;;;;;5091027;28;20168;-70
2023/01/16 08:10:56;;;;;;;2.70;1.80;;;5.50;99.90;;;;;;5081887;28;20248;-71
2023/01/16 08:13:23;;;;;;;2.07;0.60;;;5.50;99.90;;;;;;5086480;28;20637;-70
2023/01/16 08:15:50;;;;;;;0.53;0.50;;;5.60;99.90;;;;;;5083239;28;20194;-70
2023/01/16 08:18:17;;;;;;;1.20;0.60;;;5.60;99.90;;;;;;5075098;28;20180;-71
2023/01/16 08:20:44;;;;;;;0.50;0.50;;;5.60;99.90;;;;;;5079786;28;20712;-71
2023/01/16 08:23:10;;;;;;;1.57;0.70;;;5.70;99.90;;;;;;5077480;28;20171;-70
2023/01/16 08:25:35;;;;;;;0.70;0.70;;;5.70;99.90;;;;;;5087363;28;20187;-70
2023/01/16 08:28:01;;;;;;;1.50;0.73;;;5.80;99.90;;;;;;5079472;28;20304;-70
2023/01/16 08:30:27;;;;;;;1.53;0.70;;;5.80;99.90;;;;;;5079392;28;20301;-71
2023/01/16 08:33:00;;;;;;;0.87;0.57;;;5.90;99.90;;;;;;5080317;28;20179;-69
2023/01/16 08:35:26;;;;;;;1.77;0.70;;;6.00;99.90;;;;;;5088050;28;20183;-69
2023/01/16 08:37:52;;;;;;;0.97;0.63;;;6.10;99.90;;;;;;5084223;28;20226;-70
2023/01/16 08:40:18;;;;;;;1.57;0.90;;;6.00;99.90;;;;;;5094690;28;20242;-71
2023/01/16 08:53:46;;;;;;;5.73;1.03;;;6.10;99.90;;;;;;5099522;28;20178;-71
2023/01/16 08:56:12;;;;;;;2.17;0.90;;;6.20;99.90;;;;;;5104154;28;20179;-69
2023/01/16 08:58:37;;;;;;;1.80;0.60;;;6.20;99.90;;;;;;5086624;28;20208;-71
2023/01/16 09:01:03;;;;;;;1.87;0.90;;;6.30;99.90;;;;;;5094981;28;20221;-72
2023/01/16 09:03:28;;;;;;;1.30;0.70;;;6.20;99.90;;;;;;5096331;28;20631;-71
2023/01/16 09:05:54;;;;;;;5.17;1.50;;;6.10;99.90;;;;;;5087734;28;20196;-71
2023/01/16 09:08:20;;;;;;;0.80;0.70;;;6.10;99.90;;;;;;5097439;28;20205;-70
2023/01/16 09:13:48;;;;;;;0.93;0.70;;;6.00;99.90;;;;;;5101178;28;20192;-70
2023/01/16 09:13:48;;;;;;;2.30;0.80;;;5.90;99.90;;;;;;5089115;28;20199;-69
2023/01/16 09:16:19;;;;;;;0.60;0.60;;;5.90;99.90;;;;;;5080628;28;20188;-72
2023/01/16 09:18:45;;;;;;;0.97;0.80;;;6.00;99.90;;;;;;5085860;28;20232;-69
2023/01/16 09:21:10;;;;;;;1.67;0.87;;;5.90;99.90;;;;;;5082668;28;20618;-69
2023/01/16 09:23:36;;;;;;;1.00;0.77;;;5.90;99.90;;;;;;5087597;28;20168;-69
2023/01/16 09:26:02;;;;;;;1.47;0.97;;;5.80;99.90;;;;;;5096212;28;20187;-70
2023/01/16 09:28:27;;;;;;;1.40;0.97;;;5.80;99.90;;;;;;5097589;28;20267;-70
2023/01/16 09:30:53;;;;;;;1.50;1.20;;;5.70;99.90;;;;;;5081026;28;20596;-71
2023/01/16 09:33:19;;;;;;;1.57;0.70;;;5.80;99.90;;;;;;5082650;28;20502;-71
2023/01/16 09:35:44;;;;;;;0.70;0.70;;;5.80;99.90;;;;;;5078361;28;20184;-71
2023/01/16 09:38:10;;;;;;;0.80;0.80;;;5.80;99.90;;;;;;5087753;28;20191;-71
2023/01/16 09:40:36;;;;;;;1.40;1.30;;;5.80;99.90;;;;;;5081611;28;20220;-71
2023/01/16 09:43:38;;;;;;;1.53;1.10;;;5.90;99.90;;;;;;5079827;28;20187;-70
2023/01/16 09:46:20;;;;;;;3.00;1.03;;;6.00;99.90;;;;;;5092421;28;20681;-73
2023/01/16 09:48:48;;;;;;;1.03;0.57;;;6.20;99.90;;;;;;5091684;28;20185;-72
2023/01/16 09:51:28;;;;;;;1.23;1.10;;;6.30;99.90;;;;;;5089493;28;20172;-71
2023/01/16 09:59:54;;;;;;;1.50;0.80;;;6.90;99.90;;;;;;5087988;28;20741;-70
2023/01/16 10:02:40;;;;;;;0.73;0.73;;;7.00;99.90;;;;;;5093720;28;20179;-70
2023/01/16 10:05:06;;;;;;;1.43;1.23;;;7.00;99.90;;;;;;5111521;28;20195;-70
2023/01/16 10:07:55;;;;;;;2.00;0.97;;;7.10;99.90;;;;;;5100781;28;20266;-70
2023/01/16 10:10:40;;;;;;;1.03;0.60;;;7.20;99.90;;;;;;5101996;28;20179;-70
2023/01/16 10:13:20;;;;;;;0.80;0.80;;;7.10;99.90;;;;;;5079924;28;20233;-71
2023/01/16 10:16:21;;;;;;;1.60;0.73;;;7.10;99.90;;;;;;5087957;28;20210;-69
2023/01/16 10:18:59;;;;;;;1.17;0.90;;;7.10;99.90;;;;;;5035557;28;20849;-69
2023/01/16 10:21:40;;;;;;;5.57;1.40;;;7.00;99.90;;;;;;5028440;28;20201;-68
2023/01/16 10:24:34;;;;;;;3.30;0.90;;;6.90;99.90;;;;;;5023549;28;20220;-69
2023/01/16 10:27:06;;;;;;;1.73;1.03;;;6.90;99.90;;;;;;5036721;28;20260;-68
2023/01/16 10:29:34;;;;;;;2.93;1.00;;;6.80;99.90;;;;;;5032164;28;20177;-68
2023/01/16 10:32:12;;;;;;;1.63;1.10;;;6.80;99.90;;;;;;5029320;28;20190;-69
2023/01/16 10:34:53;;;;;;;1.63;1.07;;;6.80;99.90;;;;;;5026123;28;20182;-69
2023/01/16 10:37:20;;;;;;;1.30;1.20;;;6.70;99.90;;;;;;5031660;28;20263;-71
2023/01/16 10:39:49;;;;;;;1.90;1.80;;;6.60;99.90;;;;;;5032098;28;20209;-71
2023/01/16 10:50:37;;;;;;;68.70;42.73;;;6.60;99.90;;;;;;5025392;28;20305;-71
2023/01/16 10:53:05;;;;;;;3.53;2.60;;;6.70;99.90;;;;;;5043395;28;20181;-71
2023/01/16 10:55:34;;;;;;;34.43;23.63;;;6.70;99.90;;;;;;5061653;28;20186;-67
2023/01/16 10:58:04;;;;;;;16.27;11.37;;;6.80;99.90;;;;;;5088309;28;20233;-69
2023/01/16 11:00:41;;;;;;;1.10;1.10;;;6.80;99.90;;;;;;5089387;28;20249;-68
2023/01/16 11:03:34;;;;;;;2.37;1.13;;;6.80;99.90;;;;;;5087314;28;20212;-69
2023/01/16 11:06:12;;;;;;;1.03;0.97;;;6.90;99.90;;;;;;5096594;28;20653;-69
2023/01/16 11:08:40;;;;;;;2.67;2.43;;;6.80;99.90;;;;;;5088320;28;20173;-69
2023/01/16 11:18:27;;;;;;;1.60;1.20;;;6.90;99.90;;;;;;5105654;28;20375;-71
2023/01/16 11:19:31;;;;;;;8.17;3.37;;;7.10;99.90;;;;;;5087581;28;20350;-68
2023/01/16 11:22:03;;;;;;;4.13;3.53;;;7.00;99.90;;;;;;5078907;28;20409;-71
2023/01/16 11:24:34;;;;;;;2.00;1.50;;;7.00;99.90;;;;;;5070572;28;20237;-68
2023/01/16 11:27:00;;;;;;;2.37;1.80;;;7.10;99.90;;;;;;5100804;28;20669;-71
2023/01/16 11:29:33;;;;;;;1.40;1.30;;;7.20;99.90;;;;;;5096581;28;20167;-69
2023/01/16 11:32:03;;;;;;;7.60;4.00;;;7.30;99.90;;;;;;5082568;28;20207;-70
2023/01/16 11:34:29;;;;;;;5.20;4.80;;;7.20;99.90;;;;;;5073556;28;20176;-69
2023/01/16 11:36:58;;;;;;;3.33;2.17;;;7.30;99.90;;;;;;5076831;28;20228;-69
2023/01/16 11:39:28;;;;;;;3.57;3.27;;;7.40;99.90;;;;;;5079084;28;20203;-68
2023/01/16 11:41:55;;;;;;;2.00;1.90;;;7.50;99.90;;;;;;5101049;28;20188;-68
2023/01/16 11:47:26;;;;;;;22.43;20.17;;;7.70;99.90;;;;;;5043744;28;20319;-69
2023/01/16 11:49:53;;;;;;;5.50;5.00;;;7.30;99.90;;;;;;5051701;28;20260;-69
2023/01/16 11:52:27;;;;;;;1.93;1.73;;;7.30;99.90;;;;;;5041038;28;20208;-68
2023/01/16 11:55:00;;;;;;;2.70;2.30;;;7.20;99.90;;;;;;5064055;28;20181;-69
2023/01/16 11:57:41;;;;;;;12.33;11.03;;;7.10;99.90;;;;;;5039942;28;20214;-69
2023/01/16 12:00:39;;;;;;;3.37;1.97;;;7.10;99.90;;;;;;5042318;28;20217;-69
2023/01/16 12:03:15;;;;;;;4.83;4.43;;;7.10;99.90;;;;;;5018348;28;20198;-72
2023/01/16 12:06:07;;;;;;;8.27;7.23;;;7.00;99.90;;;;;;5009173;28;20328;-71
2023/01/16 12:08:52;;;;;;;2.00;1.67;;;7.10;99.90;;;;;;5019554;28;20268;-70
2023/01/16 12:11:42;;;;;;;2.10;1.57;;;7.10;99.90;;;;;;5014954;28;20222;-69
2023/01/16 12:14:17;;;;;;;3.67;2.00;;;7.10;99.90;;;;;;5027339;28;20224;-69
2023/01/16 12:17:20;;;;;;;1.67;1.57;;;7.20;99.90;;;;;;5023141;28;20196;-70
2023/01/16 12:19:55;;;;;;;2.47;1.60;;;7.30;99.90;;;;;;5014478;28;20347;-70
2023/01/16 12:22:23;;;;;;;1.90;1.80;;;7.30;99.90;;;;;;5012785;28;20292;-70
2023/01/16 12:25:22;;;;;;;1.60;1.50;;;7.40;99.90;;;;;;5024329;28;20188;-72
2023/01/16 12:28:02;;;;;;;1.10;1.00;;;7.40;99.90;;;;;;5015533;28;20190;-72
2023/01/16 12:30:35;;;;;;;1.73;1.30;;;7.20;99.90;;;;;;5029159;28;20178;-71
2023/01/16 12:33:13;;;;;;;1.30;1.20;;;7.20;99.90;;;;;;5019644;28;20190;-73
2023/01/16 12:35:53;;;;;;;7.03;6.43;;;7.20;99.90;;;;;;5002645;28;20592;-70
2023/01/16 12:38:27;;;;;;;2.23;1.47;;;7.10;99.90;;;;;;5025866;28;20197;-71
2023/01/16 12:43:53;;;;;;;4.07;3.67;;;7.20;99.90;;;;;;5044951;28;20342;-71
2023/01/16 12:46:46;;;;;;;10.53;9.53;;;7.30;99.90;;;;;;5076863;28;20226;-70
2023/01/16 12:49:39;;;;;;;14.97;13.43;;;7.40;99.90;;;;;;4983149;28;20643;-70
2023/01/16 12:52:29;;;;;;;6.87;6.37;;;7.30;99.90;;;;;;4989641;28;20211;-69
2023/01/16 12:54:59;;;;;;;3.37;2.00;;;7.30;99.90;;;;;;4992503;28;20612;-69
2023/01/16 12:57:33;;;;;;;7.43;6.73;;;7.30;99.90;;;;;;4998306;28;20179;-70
2023/01/16 13:00:16;;;;;;;3.53;1.90;;;7.40;99.90;;;;;;4997501;28;20312;-70
2023/01/16 13:03:02;;;;;;;1.87;1.77;;;7.30;99.90;;;;;;5001044;28;20678;-69
2023/01/16 13:05:33;;;;;;;3.13;2.63;;;7.30;99.90;;;;;;4988150;28;20638;-68
2023/01/16 13:08:13;;;;;;;2.63;1.80;;;7.20;99.90;;;;;;4989982;28;20219;-68
2023/01/16 13:13:35;;;;;;;2.40;1.70;;;7.40;99.90;;;;;;4994431;28;20193;-69
2023/01/16 13:16:22;;;;;;;3.07;1.80;;;7.40;99.90;;;;;;4984048;28;20179;-69
2023/01/16 13:19:02;;;;;;;8.37;2.20;;;7.50;99.90;;;;;;5004603;28;20317;-70
2023/01/16 13:21:33;;;;;;;7.57;6.27;;;7.50;99.90;;;;;;4989526;28;20301;-68
2023/01/16 13:24:14;;;;;;;2.60;1.90;;;7.40;99.90;;;;;;4990574;28;20190;-69
2023/01/16 13:26:41;;;;;;;13.20;10.80;;;7.40;99.90;;;;;;5041979;28;20207;-69
2023/01/16 13:29:16;;;;;;;2.77;2.57;;;7.30;99.90;;;;;;5107572;28;20194;-69
2023/01/16 13:31:49;;;;;;;7.30;4.47;;;7.40;99.90;;;;;;5110625;28;20170;-70
2023/01/16 13:34:20;;;;;;;5.30;3.37;;;7.50;99.90;;;;;;5112184;28;20171;-69
2023/01/16 13:36:54;;;;;;;5.47;2.83;;;7.50;99.90;;;;;;5114255;28;20179;-69
2023/01/16 13:39:38;;;;;;;1.97;1.87;;;7.50;99.90;;;;;;5115864;28;20171;-69
2023/01/16 13:42:10;;;;;;;13.47;9.17;;;7.40;99.90;;;;;;5115014;28;20421;-69
2023/01/16 13:47:32;;;;;;;10.53;9.47;;;7.50;99.90;;;;;;5110748;28;20217;-68
2023/01/16 13:50:22;;;;;;;3.23;3.00;;;7.50;99.90;;;;;;5097566;28;20176;-68
2023/01/16 13:52:48;;;;;;;6.30;5.70;;;7.50;99.90;;;;;;5100944;28;20204;-68
2023/01/16 13:55:29;;;;;;;13.87;12.40;;;7.60;99.90;;;;;;5090381;28;20208;-68
2023/01/16 13:58:05;;;;;;;2.60;2.40;;;7.50;99.90;;;;;;5111305;28;20179;-68
2023/01/16 14:00:32;;;;;;;5.67;3.40;;;7.40;99.90;;;;;;5094474;28;20209;-68
2023/01/16 14:03:24;;;;;;;1.57;1.47;;;7.50;99.90;;;;;;5106504;28;20270;-67
2023/01/16 14:06:14;;;;;;;1.70;1.60;;;7.30;99.90;;;;;;5096033;27;20168;-68
2023/01/16 14:09:04;;;;;;;2.17;1.97;;;7.30;99.90;;;;;;5103037;28;20174;-69
2023/01/16 14:11:47;;;;;;;8.93;2.40;;;7.40;99.90;;;;;;5098876;28;20176;-68